createdAt,value
2022-07-26T00:00:09.097Z,43.22
2022-07-26T00:00:53.493Z,42.92
2022-07-26T00:01:38.684Z,43.21
2022-07-26T00:02:27.775Z,43.21
2022-07-26T00:03:14.429Z,43.21
2022-07-26T00:03:58.688Z,42.92
2022-07-26T00:04:44.360Z,43.25
2022-07-26T00:05:28.256Z,42.89
2022-07-26T00:06:13.098Z,43.19
2022-07-26T00:06:58.604Z,43.13
2022-07-26T00:07:43.536Z,43.15
2022-07-26T00:08:28.274Z,43.19
2022-07-26T00:09:13.144Z,43.25
2022-07-26T00:09:57.789Z,42.80
2022-07-26T00:10:41.971Z,43.17
2022-07-26T00:11:26.640Z,42.86
2022-07-26T00:12:11.131Z,43.25
2022-07-26T00:12:56.628Z,43.04
2022-07-26T00:13:41.410Z,43.17
2022-07-26T00:14:23.223Z,43.18
2022-07-26T00:15:06.946Z,43.19
2022-07-26T00:15:54.444Z,43.17
2022-07-26T00:16:43.248Z,43.23
2022-07-26T00:17:30.021Z,43.22
2022-07-26T00:18:19.340Z,43.28
2022-07-26T00:19:08.421Z,42.95
2022-07-26T00:19:55.038Z,43.18
2022-07-26T00:20:41.450Z,43.18
2022-07-26T00:21:29.001Z,43.23
2022-07-26T00:22:18.674Z,43.23
2022-07-26T00:23:06.347Z,43.01
2022-07-26T00:23:54.998Z,42.91
2022-07-26T00:24:46.585Z,42.86
2022-07-26T00:25:33.507Z,43.11
2022-07-26T00:26:18.070Z,42.94
2022-07-26T00:27:03.988Z,42.92
2022-07-26T00:27:54.285Z,43.00
2022-07-26T00:28:39.719Z,43.23
2022-07-26T00:29:29.644Z,43.20
2022-07-26T00:30:18.306Z,43.13
2022-07-26T00:31:04.822Z,43.08
2022-07-26T00:31:48.651Z,43.04
2022-07-26T00:32:38.870Z,42.88
2022-07-26T00:33:30.363Z,42.93
2022-07-26T00:36:49.449Z,43.15
2022-07-26T00:37:56.843Z,43.07
2022-07-26T00:38:55.886Z,43.02
2022-07-26T00:40:00.410Z,42.96
2022-07-26T00:41:06.422Z,42.98
2022-07-26T00:42:04.225Z,43.23
2022-07-26T00:43:15.026Z,42.94
2022-07-26T00:44:10.423Z,42.99
2022-07-26T00:45:10.187Z,42.94
2022-07-26T00:46:20.761Z,42.94
2022-07-26T00:47:14.469Z,42.98
2022-07-26T00:48:00.558Z,42.98
2022-07-26T00:48:51.595Z,43.37
2022-07-26T00:49:38.490Z,43.08
2022-07-26T00:50:30.380Z,43.03
2022-07-26T00:51:14.496Z,43.08
2022-07-26T00:52:00.198Z,43.40
2022-07-26T00:52:44.869Z,43.23
2022-07-26T00:54:26.513Z,43.15
2022-07-26T00:55:10.567Z,43.07
2022-07-26T00:55:58.445Z,43.32
2022-07-26T00:56:55.186Z,43.25
2022-07-26T00:57:43.480Z,43.37
2022-07-26T00:58:47.433Z,43.32
2022-07-26T01:02:32.541Z,43.32
2022-07-26T01:03:30.358Z,43.12
2022-07-26T01:04:30.200Z,43.39
2022-07-26T01:05:23.730Z,43.12
2022-07-26T01:06:26.973Z,43.10
2022-07-26T01:07:20.485Z,43.44
2022-07-26T01:08:11.036Z,43.03
2022-07-26T01:09:02.101Z,43.41
2022-07-26T01:09:45.752Z,43.10
2022-07-26T01:10:33.482Z,43.12
2022-07-26T01:11:20.849Z,43.18
2022-07-26T01:12:09.422Z,43.07
2022-07-26T01:13:49.353Z,43.28
2022-07-26T01:15:30.231Z,43.34
2022-07-26T01:16:30.283Z,43.40
2022-07-26T01:17:15.448Z,43.34
2022-07-26T01:18:04.160Z,43.21
2022-07-26T01:18:49.433Z,43.28
2022-07-26T01:20:35.752Z,43.15
2022-07-26T01:21:26.577Z,43.08
2022-07-26T01:22:14.385Z,43.37
2022-07-26T01:23:05.246Z,43.15
2022-07-26T01:23:51.010Z,43.34
2022-07-26T01:24:33.548Z,43.06
2022-07-26T01:25:21.176Z,43.15
2022-07-26T01:26:18.163Z,43.17
2022-07-26T01:27:10.059Z,43.47
2022-07-26T01:27:55.673Z,43.15
2022-07-26T01:29:01.100Z,43.47
2022-07-26T01:29:53.548Z,43.38
2022-07-26T01:30:41.613Z,43.48
2022-07-26T01:32:24.967Z,43.17
2022-07-26T01:33:17.977Z,43.14
2022-07-26T01:34:17.414Z,43.49
2022-07-26T01:35:09.912Z,43.14
2022-07-26T01:36:00.318Z,43.34
2022-07-26T01:36:46.497Z,43.25
2022-07-26T01:37:37.547Z,43.47
2022-07-26T01:38:23.899Z,43.41
2022-07-26T01:39:13.177Z,43.12
2022-07-26T01:40:03.891Z,43.16
2022-07-26T01:40:47.416Z,43.14
2022-07-26T01:41:38.220Z,43.39
2022-07-26T01:42:22.836Z,43.44
2022-07-26T01:43:07.475Z,43.46
2022-07-26T01:43:55.786Z,43.54
2022-07-26T01:44:45.171Z,43.51
2022-07-26T01:46:25.744Z,43.22
2022-07-26T01:47:15.809Z,43.23
2022-07-26T01:48:04.858Z,43.13
2022-07-26T01:48:56.616Z,43.48
2022-07-26T01:49:43.935Z,43.47
2022-07-26T01:50:27.513Z,43.19
2022-07-26T01:53:06.675Z,43.17
2022-07-26T01:53:51.186Z,43.49
2022-07-26T01:54:39.993Z,43.38
2022-07-26T01:57:21.491Z,43.39
2022-07-26T01:58:17.109Z,43.32
2022-07-26T01:59:08.475Z,43.23
2022-07-26T02:01:39.637Z,43.24
2022-07-26T02:03:18.077Z,43.56
2022-07-26T02:04:19.499Z,43.47
2022-07-26T02:05:07.237Z,43.32
2022-07-26T02:05:54.148Z,43.30
2022-07-26T02:06:34.646Z,43.63
2022-07-26T02:07:27.066Z,43.66
2022-07-26T02:08:17.887Z,43.32
2022-07-26T02:09:04.246Z,43.33
2022-07-26T02:09:54.606Z,43.67
2022-07-26T02:10:53.095Z,43.65
2022-07-26T02:13:53.271Z,43.45
2022-07-26T02:15:09.163Z,43.58
2022-07-26T02:16:00.772Z,43.33
2022-07-26T02:17:56.448Z,43.32
2022-07-26T02:18:45.282Z,43.37
2022-07-26T02:19:33.209Z,43.71
2022-07-26T02:20:25.966Z,43.63
2022-07-26T02:21:12.710Z,43.38
2022-07-26T02:21:55.562Z,43.73
2022-07-26T02:22:40.120Z,43.63
2022-07-26T02:23:24.762Z,43.33
2022-07-26T02:24:11.343Z,43.41
2022-07-26T02:25:04.755Z,43.71
2022-07-26T02:25:49.857Z,43.66
2022-07-26T02:26:36.353Z,43.40
2022-07-26T02:27:23.008Z,43.38
2022-07-26T02:28:08.728Z,43.49
2022-07-26T02:28:59.663Z,43.73
2022-07-26T02:29:46.658Z,43.64
2022-07-26T02:30:34.795Z,43.41
2022-07-26T02:32:22.914Z,43.41
2022-07-26T02:33:09.443Z,43.47
2022-07-26T02:33:58.614Z,43.73
2022-07-26T02:34:48.171Z,43.76
2022-07-26T02:35:35.575Z,43.54
2022-07-26T02:37:15.026Z,43.68
2022-07-26T02:38:08.628Z,43.51
2022-07-26T02:39:56.051Z,43.44
2022-07-26T02:42:33.360Z,43.74
2022-07-26T02:43:20.641Z,43.47
2022-07-26T02:44:09.990Z,43.43
2022-07-26T02:44:59.253Z,43.39
2022-07-26T02:46:01.013Z,43.49
2022-07-26T02:46:53.581Z,43.55
2022-07-26T02:47:47.696Z,43.84
2022-07-26T02:48:39.883Z,43.88
2022-07-26T02:49:28.714Z,43.75
2022-07-26T02:50:12.335Z,43.82
2022-07-26T02:51:03.005Z,43.59
2022-07-26T02:51:49.633Z,43.80
2022-07-26T02:52:37.814Z,43.51
2022-07-26T02:53:28.800Z,43.56
2022-07-26T02:54:17.100Z,43.50
2022-07-26T02:55:57.612Z,43.77
2022-07-26T02:57:46.187Z,43.50
2022-07-26T02:58:27.193Z,43.86
2022-07-26T02:59:16.495Z,43.47
2022-07-26T03:00:04.714Z,43.46
2022-07-26T03:00:57.079Z,43.74
2022-07-26T03:01:43.822Z,43.76
2022-07-26T03:02:31.638Z,43.43
2022-07-26T03:05:58.845Z,43.39
2022-07-26T03:06:46.399Z,43.37
2022-07-26T03:07:34.866Z,43.51
2022-07-26T03:08:22.829Z,43.73
2022-07-26T03:10:07.317Z,43.77
2022-07-26T03:11:04.869Z,43.48
2022-07-26T03:11:50.566Z,43.42
2022-07-26T03:12:35.905Z,43.46
2022-07-26T03:13:35.561Z,43.57
2022-07-26T03:14:20.748Z,43.82
2022-07-26T03:15:11.613Z,43.65
2022-07-26T03:16:01.169Z,43.80
2022-07-26T03:16:49.399Z,43.83
2022-07-26T03:17:37.471Z,43.48
2022-07-26T03:18:25.050Z,43.89
2022-07-26T03:19:11.595Z,43.54
2022-07-26T03:19:58.381Z,43.47
2022-07-26T03:20:46.616Z,43.58
2022-07-26T03:21:32.859Z,43.83
2022-07-26T03:22:22.938Z,43.62
2022-07-26T03:23:11.291Z,43.50
2022-07-26T03:23:59.639Z,43.81
2022-07-26T03:24:45.231Z,43.80
2022-07-26T03:25:30.720Z,43.60
2022-07-26T03:26:20.169Z,43.52
2022-07-26T03:27:10.715Z,43.47
2022-07-26T03:27:58.081Z,43.67
2022-07-26T03:28:44.499Z,43.69
2022-07-26T03:29:34.066Z,43.52
2022-07-26T03:30:24.897Z,43.59
2022-07-26T03:31:10.784Z,43.53
2022-07-26T03:31:58.667Z,43.54
2022-07-26T03:32:44.954Z,43.82
2022-07-26T03:33:33.690Z,43.55
2022-07-26T03:34:23.617Z,43.80
2022-07-26T03:35:09.793Z,43.72
2022-07-26T03:35:57.719Z,43.75
2022-07-26T03:36:41.111Z,43.77
2022-07-26T03:37:44.839Z,43.73
2022-07-26T03:38:29.823Z,43.58
2022-07-26T03:39:20.160Z,43.85
2022-07-26T03:40:08.468Z,43.63
2022-07-26T03:40:52.121Z,43.56
2022-07-26T03:41:34.351Z,43.82
2022-07-26T03:42:24.607Z,43.55
2022-07-26T03:43:13.357Z,43.51
2022-07-26T03:43:58.431Z,43.56
2022-07-26T03:44:47.137Z,43.51
2022-07-26T03:45:40.905Z,43.56
2022-07-26T03:46:29.177Z,43.55
2022-07-26T03:47:23.231Z,43.68
2022-07-26T03:48:17.351Z,43.63
2022-07-26T03:49:13.262Z,43.78
2022-07-26T03:51:55.339Z,43.91
2022-07-26T03:52:38.694Z,43.65
2022-07-26T03:53:28.738Z,43.60
2022-07-26T03:54:13.062Z,43.71
2022-07-26T03:55:01.123Z,43.71
2022-07-26T03:55:53.582Z,43.67
2022-07-26T03:56:38.148Z,43.61
2022-07-26T03:57:32.273Z,43.99
2022-07-26T03:58:25.828Z,43.65
2022-07-26T03:59:15.403Z,44.07
2022-07-26T04:00:02.429Z,43.76
2022-07-26T04:01:46.186Z,43.93
2022-07-26T04:02:30.650Z,44.03
2022-07-26T04:03:23.908Z,44.01
2022-07-26T04:04:30.640Z,43.77
2022-07-26T04:05:23.408Z,43.95
2022-07-26T04:06:08.262Z,43.96
2022-07-26T04:06:54.846Z,43.76
2022-07-26T04:07:38.419Z,44.00
2022-07-26T04:08:27.888Z,44.08
2022-07-26T04:09:14.432Z,43.84
2022-07-26T04:10:07.373Z,43.97
2022-07-26T04:10:53.036Z,44.24
2022-07-26T04:11:47.311Z,43.83
2022-07-26T04:12:30.750Z,44.22
2022-07-26T04:13:18.665Z,44.01
2022-07-26T04:14:08.451Z,43.88
2022-07-26T04:14:58.420Z,44.34
2022-07-26T04:15:47.573Z,43.99
2022-07-26T04:16:42.932Z,44.24
2022-07-26T04:17:29.982Z,44.08
2022-07-26T04:18:15.518Z,44.12
2022-07-26T04:18:59.639Z,44.09
2022-07-26T04:19:44.507Z,44.03
2022-07-26T04:20:31.881Z,44.11
2022-07-26T04:23:12.630Z,44.33
2022-07-26T04:25:07.295Z,44.35
2022-07-26T04:26:07.636Z,44.04
2022-07-26T04:27:03.439Z,44.34
2022-07-26T04:28:12.847Z,44.39
2022-07-26T04:28:50.208Z,44.34
2022-07-26T04:29:26.868Z,44.40
2022-07-26T04:30:03.651Z,44.08
2022-07-26T04:30:40.463Z,44.09
2022-07-26T04:31:18.427Z,44.14
2022-07-26T04:31:55.837Z,44.09
2022-07-26T04:32:32.827Z,44.15
2022-07-26T04:33:08.242Z,44.50
2022-07-26T04:33:44.666Z,44.41
2022-07-26T04:34:21.303Z,44.11
2022-07-26T04:34:57.515Z,44.21
2022-07-26T04:35:33.926Z,44.43
2022-07-26T04:36:11.644Z,44.11
2022-07-26T04:36:47.257Z,44.46
2022-07-26T04:37:23.043Z,44.08
2022-07-26T04:37:58.913Z,44.22
2022-07-26T04:38:35.133Z,44.51
2022-07-26T04:39:11.674Z,44.15
2022-07-26T04:39:51.671Z,44.16
2022-07-26T04:40:30.345Z,44.16
2022-07-26T04:41:07.121Z,44.22
2022-07-26T04:41:43.334Z,44.41
2022-07-26T04:42:19.442Z,44.46
2022-07-26T04:43:00.911Z,44.16
2022-07-26T04:43:39.293Z,44.34
2022-07-26T04:44:19.761Z,44.33
2022-07-26T04:44:58.704Z,44.40
2022-07-26T04:45:38.997Z,44.52
2022-07-26T04:46:17.132Z,44.53
2022-07-26T04:46:57.326Z,44.59
2022-07-26T04:47:35.804Z,44.68
2022-07-26T04:48:11.651Z,44.67
2022-07-26T04:48:47.513Z,44.65
2022-07-26T04:49:23.606Z,44.36
2022-07-26T04:50:00.212Z,44.42
2022-07-26T04:50:37.179Z,44.48
2022-07-26T04:51:13.803Z,44.41
2022-07-26T04:51:50.350Z,44.56
2022-07-26T04:52:26.094Z,44.77
2022-07-26T04:53:02.694Z,44.78
2022-07-26T04:53:39.466Z,44.48
2022-07-26T04:54:15.647Z,44.60
2022-07-26T04:54:52.412Z,44.87
2022-07-26T04:55:28.663Z,44.54
2022-07-26T04:56:05.321Z,44.88
2022-07-26T04:56:41.787Z,44.92
2022-07-26T04:57:18.361Z,44.62
2022-07-26T04:57:55.140Z,44.93
2022-07-26T04:58:31.575Z,44.86
2022-07-26T04:59:09.687Z,44.68
2022-07-26T04:59:58.143Z,44.75
2022-07-26T05:01:08.604Z,44.66
2022-07-26T05:01:36.678Z,45.04
2022-07-26T05:02:13.690Z,44.82
2022-07-26T05:02:51.319Z,44.93
2022-07-26T05:03:27.495Z,45.28
2022-07-26T05:04:02.973Z,45.15
2022-07-26T05:04:39.888Z,45.10
2022-07-26T05:05:17.297Z,44.87
2022-07-26T05:05:53.860Z,44.79
2022-07-26T05:06:30.700Z,44.91
2022-07-26T05:07:06.382Z,44.85
2022-07-26T05:07:43.002Z,44.88
2022-07-26T05:08:19.811Z,45.09
2022-07-26T05:08:56.425Z,44.95
2022-07-26T05:09:32.177Z,45.16
2022-07-26T05:10:08.964Z,44.96
2022-07-26T05:10:45.796Z,45.22
2022-07-26T05:11:22.108Z,45.24
2022-07-26T05:11:59.050Z,45.00
2022-07-26T05:12:40.636Z,45.37
2022-07-26T05:13:23.082Z,45.05
2022-07-26T05:14:08.733Z,45.03
2022-07-26T05:14:46.690Z,45.09
2022-07-26T05:15:24.343Z,45.07
2022-07-26T05:16:03.516Z,45.34
2022-07-26T05:16:49.731Z,45.39
2022-07-26T05:17:27.424Z,45.15
2022-07-26T05:18:13.523Z,45.14
2022-07-26T05:18:53.420Z,45.21
2022-07-26T05:19:32.889Z,45.46
2022-07-26T05:20:10.396Z,45.17
2022-07-26T05:20:46.666Z,45.28
2022-07-26T05:21:23.636Z,45.42
2022-07-26T05:22:00.515Z,45.07
2022-07-26T05:22:36.932Z,45.07
2022-07-26T05:23:14.140Z,45.09
2022-07-26T05:23:50.792Z,45.09
2022-07-26T05:24:26.697Z,45.11
2022-07-26T05:25:03.112Z,45.44
2022-07-26T05:25:40.005Z,45.27
2022-07-26T05:26:16.628Z,45.18
2022-07-26T05:26:58.261Z,45.17
2022-07-26T05:27:34.186Z,45.38
2022-07-26T05:28:10.506Z,45.04
2022-07-26T05:28:46.831Z,45.19
2022-07-26T05:29:22.709Z,45.32
2022-07-26T05:29:59.547Z,45.53
2022-07-26T05:30:35.675Z,45.37
2022-07-26T05:31:12.454Z,45.55
2022-07-26T05:31:49.124Z,45.35
2022-07-26T05:32:26.041Z,45.30
2022-07-26T05:33:02.238Z,45.34
2022-07-26T05:33:38.995Z,45.57
2022-07-26T05:34:15.560Z,45.37
2022-07-26T05:34:51.236Z,45.37
2022-07-26T05:35:28.118Z,45.34
2022-07-26T05:36:04.079Z,45.41
2022-07-26T05:36:40.948Z,45.34
2022-07-26T05:37:17.429Z,45.38
2022-07-26T05:37:53.763Z,45.47
2022-07-26T05:38:30.009Z,45.64
2022-07-26T05:39:06.332Z,45.60
2022-07-26T05:39:43.618Z,45.63
2022-07-26T05:40:23.083Z,45.60
2022-07-26T05:41:01.261Z,45.22
2022-07-26T05:41:41.379Z,45.52
2022-07-26T05:42:22.978Z,45.24
2022-07-26T05:43:03.830Z,45.27
2022-07-26T05:43:44.316Z,45.27
2022-07-26T05:44:23.882Z,45.21
2022-07-26T05:45:01.922Z,45.18
2022-07-26T05:45:38.938Z,45.56
2022-07-26T05:46:15.928Z,45.28
2022-07-26T05:46:52.108Z,45.42
2022-07-26T05:47:29.189Z,45.36
2022-07-26T05:48:06.842Z,45.35
2022-07-26T05:48:44.060Z,45.68
2022-07-26T05:49:20.545Z,45.38
2022-07-26T05:49:57.108Z,45.67
2022-07-26T05:50:32.428Z,45.67
2022-07-26T05:51:09.234Z,45.73
2022-07-26T05:51:46.224Z,45.45
2022-07-26T05:52:23.167Z,45.44
2022-07-26T05:53:00.019Z,45.68
2022-07-26T05:53:36.145Z,45.67
2022-07-26T05:54:13.450Z,45.47
2022-07-26T05:54:49.829Z,45.69
2022-07-26T05:55:25.554Z,45.56
2022-07-26T05:56:02.482Z,45.51
2022-07-26T05:56:39.058Z,45.83
2022-07-26T05:57:15.693Z,45.86
2022-07-26T05:57:52.065Z,45.81
2022-07-26T05:58:28.290Z,45.66
2022-07-26T05:59:04.970Z,45.58
2022-07-26T05:59:40.689Z,45.53
2022-07-26T06:00:16.587Z,45.57
2022-07-26T06:00:54.707Z,45.86
2022-07-26T06:01:32.085Z,45.62
2022-07-26T06:02:09.275Z,45.89
2022-07-26T06:02:46.952Z,45.69
2022-07-26T06:03:28.058Z,45.70
2022-07-26T06:04:11.392Z,45.62
2022-07-26T06:04:48.132Z,45.67
2022-07-26T06:05:28.792Z,45.72
2022-07-26T06:06:10.814Z,45.73
2022-07-26T06:06:54.495Z,45.69
2022-07-26T06:07:35.670Z,45.72
2022-07-26T06:08:16.316Z,45.70
2022-07-26T06:08:57.416Z,45.98
2022-07-26T06:09:39.080Z,46.04
2022-07-26T06:10:19.652Z,45.67
2022-07-26T06:11:01.111Z,45.70
2022-07-26T06:11:39.486Z,45.76
2022-07-26T06:12:15.832Z,45.73
2022-07-26T06:12:52.404Z,45.97
2022-07-26T06:13:29.394Z,46.05
2022-07-26T06:14:05.801Z,45.76
2022-07-26T06:14:42.004Z,46.08
2022-07-26T06:15:18.013Z,45.72
2022-07-26T06:15:54.582Z,45.68
2022-07-26T06:16:31.486Z,46.01
2022-07-26T06:17:07.752Z,46.05
2022-07-26T06:17:44.684Z,46.03
2022-07-26T06:18:21.882Z,45.80
2022-07-26T06:18:58.346Z,45.85
2022-07-26T06:19:34.538Z,45.89
2022-07-26T06:20:10.710Z,45.97
2022-07-26T06:20:46.588Z,45.97
2022-07-26T06:21:23.862Z,45.93
2022-07-26T06:22:00.017Z,45.87
2022-07-26T06:22:35.990Z,45.94
2022-07-26T06:23:13.019Z,45.92
2022-07-26T06:23:50.076Z,46.00
2022-07-26T06:24:26.138Z,46.00
2022-07-26T06:25:01.532Z,46.00
2022-07-26T06:25:38.936Z,46.29
2022-07-26T06:26:15.808Z,45.95
2022-07-26T06:26:56.590Z,46.29
2022-07-26T06:27:32.711Z,46.19
2022-07-26T06:28:09.319Z,46.06
2022-07-26T06:28:46.451Z,46.18
2022-07-26T06:29:23.414Z,46.16
2022-07-26T06:30:07.032Z,46.01
2022-07-26T06:30:42.668Z,46.27
2022-07-26T06:31:19.965Z,45.97
2022-07-26T06:31:57.267Z,46.30
2022-07-26T06:32:33.657Z,46.01
2022-07-26T06:33:10.992Z,46.02
2022-07-26T06:33:47.276Z,46.03
2022-07-26T06:34:25.114Z,46.05
2022-07-26T06:35:00.299Z,46.03
2022-07-26T06:35:31.764Z,46.23
2022-07-26T06:36:03.124Z,46.07
2022-07-26T06:36:34.550Z,46.10
2022-07-26T06:37:05.881Z,46.13
2022-07-26T06:37:37.276Z,46.18
2022-07-26T06:38:08.719Z,46.22
2022-07-26T06:39:24.322Z,45.94
2022-07-26T06:40:07.092Z,45.93
2022-07-26T06:40:53.554Z,46.21
2022-07-26T06:41:36.862Z,46.13
2022-07-26T06:42:23.376Z,46.12
2022-07-26T06:43:12.903Z,46.14
2022-07-26T06:44:05.694Z,45.89
2022-07-26T06:45:02.442Z,45.90
2022-07-26T06:45:57.717Z,45.81
2022-07-26T06:46:42.813Z,46.07
2022-07-26T06:47:25.978Z,46.03
2022-07-26T06:48:10.261Z,46.06
2022-07-26T06:48:57.016Z,45.98
2022-07-26T06:49:41.801Z,46.03
2022-07-26T06:50:35.204Z,46.03
2022-07-26T06:51:37.670Z,46.12
2022-07-26T06:52:22.087Z,46.11
2022-07-26T06:53:05.060Z,46.11
2022-07-26T06:53:49.297Z,46.17
2022-07-26T06:54:40.617Z,46.38
2022-07-26T06:55:29.574Z,46.13
2022-07-26T06:56:35.322Z,46.06
2022-07-26T06:57:50.163Z,46.32
2022-07-26T06:58:40.320Z,46.08
2022-07-26T06:59:32.904Z,46.11
2022-07-26T07:00:19.824Z,46.14
2022-07-26T07:01:01.143Z,46.15
2022-07-26T07:01:57.538Z,46.50
2022-07-26T07:02:43.045Z,46.20
2022-07-26T07:03:37.021Z,46.37
2022-07-26T07:04:28.180Z,46.19
2022-07-26T07:05:23.075Z,46.11
2022-07-26T07:06:06.143Z,46.42
2022-07-26T07:06:54.690Z,46.36
2022-07-26T07:07:44.045Z,46.24
2022-07-26T07:08:38.597Z,46.46
2022-07-26T07:09:23.339Z,46.53
2022-07-26T07:10:12.652Z,46.21
2022-07-26T07:11:12.588Z,46.53
2022-07-26T07:12:03.386Z,46.32
2022-07-26T07:12:55.317Z,46.17
2022-07-26T07:13:49.282Z,46.47
2022-07-26T07:14:37.071Z,46.49
2022-07-26T07:15:31.112Z,46.14
2022-07-26T07:16:13.010Z,46.18
2022-07-26T07:17:03.345Z,46.39
2022-07-26T07:17:51.282Z,46.26
2022-07-26T07:19:26.841Z,46.36
2022-07-26T07:20:20.721Z,46.37
2022-07-26T07:21:04.275Z,46.14
2022-07-26T07:22:31.022Z,46.13
2022-07-26T07:23:16.938Z,46.25
2022-07-26T07:24:09.876Z,46.17
2022-07-26T07:25:00.844Z,46.07
2022-07-26T07:25:50.445Z,46.33
2022-07-26T07:26:43.018Z,46.37
2022-07-26T07:27:30.081Z,46.19
2022-07-26T07:28:19.743Z,46.17
2022-07-26T07:29:05.770Z,46.40
2022-07-26T07:29:57.159Z,46.16
2022-07-26T07:30:42.193Z,46.32
2022-07-26T07:31:48.574Z,46.21
2022-07-26T07:32:35.295Z,46.45
2022-07-26T07:33:36.558Z,46.26
2022-07-26T07:34:25.463Z,46.38
2022-07-26T07:35:16.890Z,46.32
2022-07-26T07:35:59.919Z,46.29
2022-07-26T07:36:52.612Z,46.46
2022-07-26T07:37:53.418Z,46.60
2022-07-26T07:38:42.826Z,46.61
2022-07-26T07:39:34.893Z,46.36
2022-07-26T07:40:22.953Z,46.34
2022-07-26T07:41:14.820Z,46.34
2022-07-26T07:41:56.026Z,46.53
2022-07-26T07:42:46.394Z,46.30
2022-07-26T07:43:30.066Z,46.58
2022-07-26T07:44:21.513Z,46.39
2022-07-26T07:45:07.231Z,46.65
2022-07-26T07:45:59.220Z,46.67
2022-07-26T07:46:43.741Z,46.67
2022-07-26T07:47:36.015Z,46.39
2022-07-26T07:48:23.050Z,46.48
2022-07-26T07:49:14.321Z,46.74
2022-07-26T07:50:00.466Z,46.61
2022-07-26T07:50:50.793Z,46.76
2022-07-26T07:51:36.460Z,46.68
2022-07-26T07:52:24.736Z,46.54
2022-07-26T07:53:09.468Z,46.80
2022-07-26T07:53:58.635Z,46.73
2022-07-26T07:54:39.443Z,46.59
2022-07-26T07:55:40.941Z,46.48
2022-07-26T07:56:25.838Z,46.40
2022-07-26T07:57:12.102Z,46.48
2022-07-26T07:57:56.769Z,46.56
2022-07-26T07:58:47.193Z,46.72
2022-07-26T07:59:31.509Z,46.73
2022-07-26T08:00:26.851Z,46.61
2022-07-26T08:01:21.843Z,46.59
2022-07-26T08:02:21.605Z,46.53
2022-07-26T08:03:17.919Z,46.58
2022-07-26T08:04:09.786Z,46.54
2022-07-26T08:06:22.605Z,46.74
2022-07-26T08:07:36.153Z,46.53
2022-07-26T08:09:35.554Z,46.48
2022-07-26T08:10:34.104Z,46.60
2022-07-26T08:11:50.929Z,46.57
2022-07-26T08:12:35.211Z,46.65
2022-07-26T08:13:22.819Z,46.58
2022-07-26T08:14:10.914Z,46.92
2022-07-26T08:14:53.317Z,46.94
2022-07-26T08:15:39.717Z,46.67
2022-07-26T08:16:24.194Z,46.74
2022-07-26T08:17:10.995Z,47.02
2022-07-26T08:17:57.571Z,46.86
2022-07-26T08:18:55.797Z,46.88
2022-07-26T08:19:42.466Z,47.06
2022-07-26T08:20:26.588Z,47.02
2022-07-26T08:21:10.007Z,46.74
2022-07-26T08:21:57.196Z,46.93
2022-07-26T08:22:46.533Z,46.91
2022-07-26T08:23:52.016Z,47.02
2022-07-26T08:24:49.673Z,46.76
2022-07-26T08:25:33.942Z,47.02
2022-07-26T08:26:26.925Z,46.67
2022-07-26T08:27:15.192Z,46.62
2022-07-26T08:28:30.714Z,46.61
2022-07-26T08:29:16.665Z,46.67
2022-07-26T08:30:07.717Z,46.53
2022-07-26T08:30:53.214Z,46.93
2022-07-26T08:31:43.454Z,46.54
2022-07-26T08:32:32.372Z,46.60
2022-07-26T08:33:17.102Z,46.64
2022-07-26T08:34:13.579Z,46.74
2022-07-26T08:35:19.596Z,46.56
2022-07-26T08:36:03.337Z,46.62
2022-07-26T08:37:15.382Z,46.82
2022-07-26T08:37:58.815Z,46.75
2022-07-26T08:38:47.581Z,46.55
2022-07-26T08:39:30.217Z,46.48
2022-07-26T08:40:21.964Z,46.74
2022-07-26T08:41:12.221Z,46.65
2022-07-26T08:41:56.167Z,46.47
2022-07-26T08:42:47.264Z,46.75
2022-07-26T08:43:52.008Z,46.40
2022-07-26T08:44:41.729Z,46.38
2022-07-26T08:45:27.101Z,46.65
2022-07-26T08:46:16.102Z,46.74
2022-07-26T08:47:00.756Z,46.68
2022-07-26T08:48:15.025Z,46.62
2022-07-26T08:48:49.602Z,46.66
2022-07-26T08:49:33.263Z,46.45
2022-07-26T08:50:17.531Z,46.72
2022-07-26T08:51:06.130Z,46.78
2022-07-26T08:51:52.024Z,46.74
2022-07-26T08:52:42.965Z,46.56
2022-07-26T08:53:28.917Z,46.26
2022-07-26T08:54:14.545Z,46.33
2022-07-26T08:55:02.230Z,46.29
2022-07-26T08:56:08.426Z,46.36
2022-07-26T08:56:52.144Z,46.66
2022-07-26T08:57:36.625Z,46.63
2022-07-26T08:58:22.696Z,46.29
2022-07-26T08:59:19.136Z,46.33
2022-07-26T09:00:06.369Z,46.48
2022-07-26T09:00:54.187Z,46.30
2022-07-26T09:01:38.226Z,46.28
2022-07-26T09:02:26.723Z,46.71
2022-07-26T09:03:12.259Z,46.40
2022-07-26T09:03:59.291Z,46.67
2022-07-26T09:04:45.003Z,46.36
2022-07-26T09:05:27.625Z,46.59
2022-07-26T09:06:16.275Z,46.33
2022-07-26T09:07:05.910Z,46.42
2022-07-26T09:07:48.636Z,46.31
2022-07-26T09:08:40.385Z,46.41
2022-07-26T09:09:30.112Z,46.64
2022-07-26T09:10:20.718Z,46.55
2022-07-26T09:11:00.958Z,46.54
2022-07-26T09:11:41.314Z,46.55
2022-07-26T09:12:30.183Z,46.30
2022-07-26T09:13:26.045Z,46.70
2022-07-26T09:14:38.363Z,46.24
2022-07-26T09:15:36.012Z,46.41
2022-07-26T09:16:33.361Z,46.32
2022-07-26T09:17:37.622Z,46.39
2022-07-26T09:19:25.449Z,46.37
2022-07-26T09:20:37.602Z,46.34
2022-07-26T09:21:35.805Z,46.43
2022-07-26T09:22:31.203Z,46.33
2022-07-26T09:23:26.067Z,46.34
2022-07-26T09:24:16.129Z,46.60
2022-07-26T09:25:09.072Z,46.48
2022-07-26T09:26:01.656Z,46.32
2022-07-26T09:26:57.642Z,46.56
2022-07-26T09:27:52.287Z,46.51
2022-07-26T09:28:49.874Z,46.39
2022-07-26T09:29:46.811Z,46.44
2022-07-26T09:31:40.228Z,46.48
2022-07-26T09:32:36.475Z,46.23
2022-07-26T09:33:33.704Z,46.17
2022-07-26T09:34:28.675Z,46.12
2022-07-26T09:35:49.973Z,46.28
2022-07-26T09:36:26.168Z,45.97
2022-07-26T09:38:25.564Z,46.08
2022-07-26T09:39:34.085Z,46.01
2022-07-26T09:41:23.058Z,46.05
2022-07-26T09:42:32.377Z,46.40
2022-07-26T09:44:20.141Z,46.41
2022-07-26T09:46:18.686Z,45.98
2022-07-26T09:50:23.043Z,45.84
2022-07-26T09:51:16.271Z,45.99
2022-07-26T09:52:19.403Z,45.95
2022-07-26T09:53:17.832Z,46.07
2022-07-26T09:54:10.083Z,45.90
2022-07-26T09:56:14.809Z,45.95
2022-07-26T09:57:15.728Z,45.88
2022-07-26T09:59:07.965Z,46.11
2022-07-26T09:59:59.901Z,46.05
2022-07-26T10:00:52.753Z,45.72
2022-07-26T10:03:25.779Z,45.63
2022-07-26T10:04:09.281Z,46.00
2022-07-26T10:04:55.884Z,45.84
2022-07-26T10:05:51.184Z,45.89
2022-07-26T10:06:59.283Z,45.75
2022-07-26T10:09:11.922Z,45.99
2022-07-26T10:10:02.898Z,45.72
2022-07-26T10:10:53.722Z,45.79
2022-07-26T10:11:42.323Z,45.71
2022-07-26T10:12:30.794Z,45.95
2022-07-26T10:13:18.199Z,45.69
2022-07-26T10:14:06.950Z,45.66
2022-07-26T10:15:03.204Z,45.69
2022-07-26T10:15:47.845Z,45.79
2022-07-26T10:16:42.162Z,46.03
2022-07-26T10:17:35.849Z,45.81
2022-07-26T10:18:20.175Z,45.65
2022-07-26T10:19:10.516Z,45.63
2022-07-26T10:19:57.919Z,45.72
2022-07-26T10:20:47.835Z,45.96
2022-07-26T10:21:36.783Z,45.64
2022-07-26T10:22:24.922Z,45.59
2022-07-26T10:23:12.075Z,45.91
2022-07-26T10:23:57.701Z,45.75
2022-07-26T10:24:46.745Z,45.72
2022-07-26T10:25:35.241Z,45.68
2022-07-26T10:26:26.418Z,45.69
2022-07-26T10:27:14.641Z,45.63
2022-07-26T10:28:11.963Z,45.78
2022-07-26T10:28:59.096Z,45.89
2022-07-26T10:29:52.876Z,45.64
2022-07-26T10:30:41.493Z,45.85
2022-07-26T10:31:36.064Z,45.65
2022-07-26T10:32:21.265Z,45.70
2022-07-26T10:33:06.988Z,45.97
2022-07-26T10:33:55.118Z,45.88
2022-07-26T10:34:47.718Z,45.90
2022-07-26T10:35:32.472Z,45.57
2022-07-26T10:36:23.496Z,45.81
2022-07-26T10:37:06.366Z,45.74
2022-07-26T10:37:59.337Z,45.81
2022-07-26T10:38:43.165Z,45.83
2022-07-26T10:39:35.853Z,45.87
2022-07-26T10:40:20.034Z,45.69
2022-07-26T10:41:53.480Z,45.47
2022-07-26T10:42:42.997Z,45.77
2022-07-26T10:43:41.143Z,45.71
2022-07-26T10:44:27.856Z,45.47
2022-07-26T10:45:10.803Z,45.68
2022-07-26T10:46:02.106Z,45.79
2022-07-26T10:46:47.383Z,45.71
2022-07-26T10:47:36.297Z,45.39
2022-07-26T10:48:19.915Z,45.40
2022-07-26T10:49:08.207Z,45.43
2022-07-26T10:49:54.155Z,45.50
2022-07-26T10:50:43.681Z,45.64
2022-07-26T10:51:29.752Z,45.64
2022-07-26T10:52:14.936Z,45.33
2022-07-26T10:53:05.909Z,45.37
2022-07-26T10:53:55.073Z,45.30
2022-07-26T10:54:42.555Z,45.42
2022-07-26T10:56:23.061Z,45.27
2022-07-26T10:57:16.946Z,45.34
2022-07-26T10:58:01.741Z,45.35